Time;durP1;ratioP1;P1;durP2;ratioP2;P2;SDS_P1;SDS_P2;PMS_P1;PMS_P2;Temp;Humidity;BMP_temperature;BMP_pressure;BME280_temperature;BME280_humidity;BME280_pressure;Samples;Min_cycle;Max_cycle;Signal;HPM_P1;HPM_P2
2021/01/26 00:19:07;;;;;;;31.55;22.85;;;2.00;99.90;;;;;;5915156;22;20203;-92
2021/01/26 00:26:45;;;;;;;24.55;20.05;;;2.10;99.90;;;;;;5249682;22;20247;-95
2021/01/26 00:29:12;;;;;;;28.58;21.95;;;2.00;99.90;;;;;;4962667;29;20198;-94
2021/01/26 00:34:20;;;;;;;23.98;20.00;;;2.00;99.90;;;;;;4983535;28;20199;-93
2021/01/26 00:37:04;;;;;;;28.35;20.08;;;1.80;99.90;;;;;;4985047;28;20202;-94
2021/01/26 00:39:31;;;;;;;36.08;19.77;;;1.70;99.90;;;;;;4987014;28;20202;-94
2021/01/26 00:44:51;;;;;;;34.35;25.00;;;1.70;99.90;;;;;;5448877;22;20502;-95
2021/01/26 00:47:53;;;;;;;35.67;24.10;;;1.70;99.90;;;;;;5273706;22;20262;31
2021/01/26 00:50:46;;;;;;;33.28;26.27;;;1.70;99.90;;;;;;5000501;23;20236;-95
2021/01/26 00:53:14;;;;;;;34.35;25.27;;;1.80;99.90;;;;;;5033915;28;20266;-94
2021/01/26 00:55:56;;;;;;;31.65;24.88;;;1.70;99.90;;;;;;5027231;28;20214;-93
2021/01/26 00:58:52;;;;;;;36.03;25.33;;;1.80;99.90;;;;;;5029392;28;20206;-96
2021/01/26 01:01:26;;;;;;;35.63;25.80;;;1.90;99.90;;;;;;5024891;28;20236;-94
2021/01/26 01:03:54;;;;;;;39.65;28.90;;;1.90;99.90;;;;;;5031690;28;20226;-95
2021/01/26 01:06:20;;;;;;;29.25;24.42;;;1.90;99.90;;;;;;5023324;28;20198;-95
2021/01/26 01:09:02;;;;;;;29.35;22.65;;;1.90;99.90;;;;;;5024115;28;20633;-95
2021/01/26 01:11:32;;;;;;;30.83;23.45;;;1.70;99.90;;;;;;5022762;28;20287;-94
2021/01/26 01:14:02;;;;;;;31.85;24.90;;;1.60;99.90;;;;;;5026951;28;20202;-96
2021/01/26 01:33:15;;;;;;;31.80;24.95;;;1.80;99.90;;;;;;4980597;28;20661;-95
2021/01/26 01:35:42;;;;;;;31.58;23.80;;;1.80;99.90;;;;;;4982513;28;20211;-95
2021/01/26 01:38:09;;;;;;;34.38;23.25;;;1.80;99.90;;;;;;4984706;28;20207;-93
2021/01/26 01:40:36;;;;;;;33.22;24.75;;;1.80;99.90;;;;;;4997282;28;20292;-93
2021/01/26 01:43:03;;;;;;;35.65;29.83;;;1.90;99.90;;;;;;4995103;28;20204;-93
2021/01/26 01:45:29;;;;;;;29.98;24.05;;;1.90;99.90;;;;;;4981703;28;20196;-93
2021/01/26 01:48:00;;;;;;;42.80;25.70;;;1.90;99.90;;;;;;4980215;28;20199;-93
2021/01/26 01:50:31;;;;;;;37.85;27.25;;;2.00;99.90;;;;;;4979687;28;20206;-90
2021/01/26 01:53:04;;;;;;;47.25;27.95;;;2.00;99.90;;;;;;4988848;28;20224;-91
2021/01/26 01:55:33;;;;;;;35.83;25.50;;;2.00;99.90;;;;;;4976589;28;20207;-93
2021/01/26 02:00:31;;;;;;;37.17;26.95;;;1.90;99.90;;;;;;5008756;28;20294;-95
2021/01/26 02:03:04;;;;;;;39.85;27.33;;;1.80;99.90;;;;;;5420960;23;20205;-89
2021/01/26 02:08:41;;;;;;;41.33;26.83;;;2.00;99.90;;;;;;5734700;22;20227;-95
2021/01/26 02:23:13;;;;;;;39.20;26.50;;;2.00;99.90;;;;;;5003712;28;20208;-94
2021/01/26 02:26:13;;;;;;;30.83;22.17;;;2.10;99.90;;;;;;5007565;28;20624;-93
2021/01/26 02:28:51;;;;;;;28.33;24.50;;;2.10;99.90;;;;;;5006190;28;20199;-92
2021/01/26 02:31:51;;;;;;;39.42;27.80;;;2.20;99.90;;;;;;5008663;28;20203;-93
2021/01/26 02:34:50;;;;;;;36.17;26.13;;;2.10;99.90;;;;;;4999742;28;20199;-94
2021/01/26 02:37:41;;;;;;;32.70;24.08;;;2.20;99.90;;;;;;4984466;28;20223;-90
2021/01/26 02:40:13;;;;;;;34.17;25.73;;;2.20;99.90;;;;;;5003721;28;20281;-92
2021/01/26 02:43:07;;;;;;;35.70;26.50;;;2.20;99.90;;;;;;5001414;28;20214;-94
2021/01/26 02:45:37;;;;;;;37.15;24.42;;;2.20;99.90;;;;;;5000267;28;20230;-92
2021/01/26 02:48:19;;;;;;;33.72;26.35;;;2.20;99.90;;;;;;5001506;28;20202;-92
2021/01/26 02:50:52;;;;;;;30.23;22.70;;;2.20;99.90;;;;;;5000458;28;20199;-92
2021/01/26 02:53:26;;;;;;;28.70;20.15;;;2.30;99.90;;;;;;5003118;28;20208;-93
2021/01/26 02:55:59;;;;;;;32.03;22.70;;;2.40;99.90;;;;;;5001974;28;20196;-92
2021/01/26 02:58:32;;;;;;;26.95;21.83;;;2.30;99.90;;;;;;5000325;28;20262;-93
2021/01/26 03:00:59;;;;;;;26.50;20.48;;;2.50;99.90;;;;;;4998322;28;20200;-92
2021/01/26 03:03:33;;;;;;;19.30;16.92;;;2.30;99.90;;;;;;4999000;28;20191;-92
2021/01/26 03:06:04;;;;;;;21.60;15.68;;;2.40;99.90;;;;;;5011868;28;20195;-92
2021/01/26 03:08:34;;;;;;;22.83;16.70;;;2.50;99.90;;;;;;5007561;28;20199;-92
2021/01/26 03:11:08;;;;;;;21.77;17.17;;;2.40;99.90;;;;;;4999007;28;20214;-92
2021/01/26 03:13:39;;;;;;;27.75;17.95;;;2.50;99.90;;;;;;4998545;28;20288;-89
2021/01/26 03:16:09;;;;;;;25.08;16.73;;;2.50;99.90;;;;;;4997089;28;20203;-92
2021/01/26 03:18:41;;;;;;;24.20;15.90;;;2.50;99.90;;;;;;4996367;28;20228;-91
2021/01/26 03:21:11;;;;;;;24.13;16.55;;;2.70;99.90;;;;;;4997822;28;20258;-92
2021/01/26 03:23:41;;;;;;;25.45;17.60;;;2.50;99.90;;;;;;4998086;28;20196;-93
2021/01/26 03:26:12;;;;;;;22.67;16.05;;;2.50;99.90;;;;;;4998313;28;20698;-92
2021/01/26 03:28:39;;;;;;;35.30;17.77;;;2.50;99.90;;;;;;4992087;28;20211;-92
2021/01/26 03:31:09;;;;;;;17.33;13.68;;;2.50;99.90;;;;;;4998148;28;20208;-91
2021/01/26 03:33:40;;;;;;;14.30;10.15;;;2.60;99.90;;;;;;4997978;28;20199;-92
2021/01/26 03:36:07;;;;;;;19.67;12.57;;;2.60;99.90;;;;;;4997392;28;20252;-90
2021/01/26 03:38:34;;;;;;;25.67;14.68;;;2.70;99.90;;;;;;4997391;28;20207;-87
2021/01/26 03:41:03;;;;;;;27.20;14.40;;;2.70;99.90;;;;;;4997016;28;20199;-88
2021/01/26 03:43:31;;;;;;;20.45;12.40;;;2.70;99.90;;;;;;4997868;28;20251;-90
2021/01/26 03:46:06;;;;;;;14.45;12.45;;;2.60;99.90;;;;;;4997566;28;20194;-92
2021/01/26 03:48:53;;;;;;;16.33;11.02;;;2.70;99.90;;;;;;4997676;28;20201;-90
2021/01/26 03:51:32;;;;;;;16.15;13.10;;;2.70;99.90;;;;;;4978659;28;20228;-91
2021/01/26 03:54:28;;;;;;;16.10;10.98;;;2.70;99.90;;;;;;4979210;28;20201;-91
2021/01/26 03:57:30;;;;;;;20.10;12.65;;;2.70;99.90;;;;;;4986633;28;20552;-90
2021/01/26 04:00:09;;;;;;;13.02;9.88;;;2.80;99.90;;;;;;4987185;28;20197;-93
2021/01/26 04:02:53;;;;;;;14.90;9.35;;;2.70;99.90;;;;;;5003251;28;20194;-92
2021/01/26 04:05:22;;;;;;;19.80;14.32;;;2.70;99.90;;;;;;5008355;28;20217;-93
2021/01/26 04:07:55;;;;;;;18.98;11.73;;;2.70;99.90;;;;;;5012331;28;20185;-92
2021/01/26 04:10:23;;;;;;;16.45;10.00;;;2.60;99.90;;;;;;5001109;28;20204;-91
2021/01/26 04:13:01;;;;;;;21.17;14.02;;;2.80;99.90;;;;;;4999261;28;20224;-91
2021/01/26 04:15:33;;;;;;;18.75;13.65;;;2.70;99.90;;;;;;4998071;28;20204;-91
2021/01/26 04:18:00;;;;;;;23.63;12.30;;;2.50;99.90;;;;;;4999907;28;20224;-92
2021/01/26 04:20:30;;;;;;;20.75;12.95;;;2.50;99.90;;;;;;4997587;28;20196;-94
2021/01/26 04:22:58;;;;;;;17.25;11.25;;;2.50;99.90;;;;;;4997797;28;20204;-91
2021/01/26 04:25:29;;;;;;;21.08;11.32;;;2.50;99.90;;;;;;4998260;28;20192;-92
2021/01/26 04:27:56;;;;;;;17.45;10.75;;;2.50;99.90;;;;;;4997103;28;20245;-88
2021/01/26 04:30:23;;;;;;;14.23;10.57;;;2.50;99.90;;;;;;4996918;28;20196;-92
2021/01/26 04:32:57;;;;;;;12.25;8.55;;;2.50;99.90;;;;;;5009123;28;20221;-93
2021/01/26 04:35:24;;;;;;;14.73;9.98;;;2.60;99.90;;;;;;5004745;28;20192;-92
2021/01/26 04:37:50;;;;;;;14.48;10.52;;;2.60;99.90;;;;;;4995973;28;20193;-91
2021/01/26 04:40:17;;;;;;;16.35;10.73;;;2.60;99.90;;;;;;4997644;28;20202;-92
2021/01/26 04:42:45;;;;;;;15.45;9.88;;;2.60;99.90;;;;;;4996882;28;20678;-92
2021/01/26 04:45:14;;;;;;;14.00;9.18;;;2.60;99.90;;;;;;4996989;28;20196;-89
2021/01/26 04:47:45;;;;;;;16.83;9.07;;;2.60;99.90;;;;;;5003287;28;20182;-91
2021/01/26 04:50:24;;;;;;;15.45;10.55;;;2.60;99.90;;;;;;5000738;28;20210;-92
2021/01/26 04:53:23;;;;;;;13.57;8.35;;;2.60;99.90;;;;;;4995825;28;20223;-90
2021/01/26 04:55:59;;;;;;;16.15;9.20;;;2.60;99.90;;;;;;4995737;28;20197;-90
2021/01/26 04:58:54;;;;;;;13.68;8.88;;;2.60;99.90;;;;;;4995395;28;20217;-89
2021/01/26 05:01:32;;;;;;;17.02;10.02;;;2.70;99.90;;;;;;4992604;28;20607;-91
2021/01/26 05:04:02;;;;;;;15.38;11.10;;;2.70;99.90;;;;;;4996746;28;20250;-90
2021/01/26 05:06:35;;;;;;;15.25;9.82;;;2.70;99.90;;;;;;5005542;28;20200;-91
2021/01/26 05:09:05;;;;;;;11.63;8.73;;;2.70;99.90;;;;;;4998606;28;20208;-90
2021/01/26 05:11:36;;;;;;;12.23;8.50;;;2.70;99.90;;;;;;4997345;28;20243;-91
2021/01/26 05:14:10;;;;;;;15.35;9.15;;;2.70;99.90;;;;;;4997834;28;20196;-90
2021/01/26 05:16:39;;;;;;;18.95;9.60;;;2.70;99.90;;;;;;4997519;28;20212;-92
2021/01/26 05:19:14;;;;;;;10.43;8.52;;;2.70;99.90;;;;;;4994099;28;20235;-90
2021/01/26 05:21:46;;;;;;;22.35;9.02;;;2.70;99.90;;;;;;4994868;28;20679;-91
2021/01/26 05:24:22;;;;;;;15.15;8.18;;;2.70;99.90;;;;;;4995560;28;20200;-91
2021/01/26 05:26:49;;;;;;;15.25;8.13;;;2.80;99.90;;;;;;4997023;28;20633;-92
2021/01/26 05:29:15;;;;;;;12.15;8.75;;;2.70;99.90;;;;;;4996805;28;20212;-92
2021/01/26 05:31:45;;;;;;;13.50;9.10;;;2.70;99.90;;;;;;4996456;28;20599;-91
2021/01/26 05:34:13;;;;;;;10.82;6.90;;;2.70;99.90;;;;;;4997837;28;20202;-92
2021/01/26 05:36:45;;;;;;;15.98;8.15;;;2.70;99.90;;;;;;4996122;28;20220;-90
2021/01/26 05:39:17;;;;;;;9.50;8.25;;;2.80;99.90;;;;;;5011509;28;20198;-91
2021/01/26 05:41:43;;;;;;;11.13;8.55;;;2.80;99.90;;;;;;4998024;28;20197;-92
2021/01/26 05:44:10;;;;;;;15.80;9.02;;;2.80;99.90;;;;;;4985075;28;20203;-92
2021/01/26 05:46:40;;;;;;;13.13;10.02;;;2.80;99.90;;;;;;4999256;28;20195;-91
2021/01/26 05:49:06;;;;;;;12.75;9.68;;;2.80;99.90;;;;;;5000848;28;20196;-89
2021/01/26 05:51:35;;;;;;;17.58;10.18;;;2.80;99.90;;;;;;5000443;28;20222;-91
2021/01/26 05:54:05;;;;;;;10.88;8.65;;;2.80;99.90;;;;;;5000119;28;20200;-92
2021/01/26 05:56:33;;;;;;;12.80;9.25;;;2.80;99.90;;;;;;5000121;28;20199;-91
2021/01/26 05:59:19;;;;;;;10.77;8.15;;;2.80;99.90;;;;;;5001467;28;20188;-91
2021/01/26 06:01:45;;;;;;;14.27;7.72;;;2.80;99.90;;;;;;4997993;28;20200;-90
2021/01/26 06:04:14;;;;;;;10.90;7.93;;;2.70;99.90;;;;;;4997968;28;20604;-89
2021/01/26 06:06:59;;;;;;;10.82;8.57;;;2.70;99.90;;;;;;4997070;28;20189;-88
2021/01/26 06:09:32;;;;;;;31.63;9.52;;;2.70;99.90;;;;;;4993854;28;20206;-89
2021/01/26 06:12:17;;;;;;;12.25;9.00;;;2.70;99.90;;;;;;4999580;28;20193;-87
2021/01/26 06:14:46;;;;;;;11.88;9.27;;;2.70;99.90;;;;;;4998193;28;20193;-88
2021/01/26 06:17:19;;;;;;;11.57;8.60;;;2.70;99.90;;;;;;5020983;28;20211;-90
2021/01/26 06:19:45;;;;;;;14.77;9.57;;;2.70;99.90;;;;;;5021589;28;20176;-91
2021/01/26 06:22:24;;;;;;;18.48;10.90;;;2.70;99.90;;;;;;5019069;28;20178;-90
2021/01/26 06:24:55;;;;;;;15.48;10.68;;;2.70;99.90;;;;;;5013787;28;20173;-90
2021/01/26 06:27:40;;;;;;;21.08;10.65;;;2.70;99.90;;;;;;5001255;28;20206;-90
2021/01/26 06:30:18;;;;;;;19.02;15.60;;;2.70;99.90;;;;;;5001609;28;20203;-88
2021/01/26 06:33:16;;;;;;;19.45;11.52;;;2.70;99.90;;;;;;5002179;28;20225;-88
2021/01/26 06:35:52;;;;;;;17.75;12.50;;;2.70;99.90;;;;;;4998865;28;20556;-90
2021/01/26 06:38:56;;;;;;;18.70;14.70;;;2.70;99.90;;;;;;4998862;28;20198;-89
2021/01/26 06:41:45;;;;;;;21.35;12.77;;;2.70;99.90;;;;;;4998041;28;20195;-90
2021/01/26 06:44:24;;;;;;;27.42;16.35;;;2.70;99.90;;;;;;4998307;28;20251;-90
2021/01/26 06:47:05;;;;;;;19.92;14.43;;;2.70;99.90;;;;;;4998384;28;20188;-89
2021/01/26 06:49:48;;;;;;;22.67;14.30;;;2.80;99.90;;;;;;4997840;28;20193;-89
2021/01/26 06:52:36;;;;;;;18.40;14.30;;;2.80;99.90;;;;;;4997787;28;20228;-90
2021/01/26 06:55:14;;;;;;;28.77;14.65;;;2.90;99.90;;;;;;5006547;28;20195;-89
2021/01/26 06:58:07;;;;;;;21.00;14.05;;;2.90;99.90;;;;;;5009530;28;20197;-90
2021/01/26 07:00:49;;;;;;;16.27;13.35;;;2.90;99.90;;;;;;5002037;28;20196;-89
2021/01/26 07:03:51;;;;;;;20.67;11.57;;;2.90;99.90;;;;;;5000568;28;20197;-91
2021/01/26 07:06:29;;;;;;;17.80;10.23;;;2.90;99.90;;;;;;4999346;28;20202;-92
2021/01/26 07:09:17;;;;;;;16.83;12.30;;;2.90;99.90;;;;;;5000511;28;20211;-92
2021/01/26 07:12:18;;;;;;;24.30;15.38;;;2.90;99.90;;;;;;5007641;28;20273;-90
2021/01/26 07:15:09;;;;;;;14.27;11.73;;;2.90;99.90;;;;;;5005133;28;20204;-91
2021/01/26 07:17:48;;;;;;;22.45;12.95;;;2.90;99.90;;;;;;4981573;28;20321;-91
2021/01/26 07:20:27;;;;;;;14.50;11.27;;;2.90;99.90;;;;;;4987597;28;20205;-93
2021/01/26 07:23:22;;;;;;;23.05;12.05;;;2.90;99.90;;;;;;4985940;28;20201;-92
2021/01/26 07:26:04;;;;;;;20.85;10.95;;;3.00;99.90;;;;;;5008726;28;20197;-91
2021/01/26 07:28:53;;;;;;;15.65;9.52;;;3.00;99.90;;;;;;5011889;28;20195;-91
2021/01/26 07:31:26;;;;;;;12.75;7.95;;;3.00;99.90;;;;;;5006114;28;20272;-91
2021/01/26 07:34:04;;;;;;;18.70;11.60;;;3.00;99.90;;;;;;5003192;28;20624;-93
2021/01/26 07:36:36;;;;;;;15.02;10.13;;;3.00;99.90;;;;;;5011176;28;20195;-90
2021/01/26 07:39:17;;;;;;;15.95;11.68;;;3.00;99.90;;;;;;5020114;28;20197;-92
2021/01/26 07:41:49;;;;;;;22.55;11.73;;;3.00;99.90;;;;;;5019808;28;20196;-92
2021/01/26 07:44:21;;;;;;;15.32;11.00;;;3.00;99.90;;;;;;5014939;28;20287;-93
2021/01/26 07:46:54;;;;;;;13.52;10.82;;;2.90;99.90;;;;;;5005329;28;20273;-92
2021/01/26 07:49:27;;;;;;;19.92;12.07;;;3.00;99.90;;;;;;5004653;28;20204;-91
2021/01/26 07:51:59;;;;;;;14.52;10.48;;;2.90;99.90;;;;;;5007593;28;20213;-93
2021/01/26 07:54:33;;;;;;;12.80;9.00;;;2.90;99.90;;;;;;5004672;28;20206;-92
2021/01/26 07:57:05;;;;;;;15.18;13.43;;;2.90;99.90;;;;;;5002906;28;20276;-93
2021/01/26 07:59:36;;;;;;;15.60;10.93;;;2.90;99.90;;;;;;5015968;28;20201;-92
2021/01/26 08:04:54;;;;;;;12.77;11.48;;;2.90;99.90;;;;;;4989606;28;20191;-93
2021/01/26 08:07:27;;;;;;;11.98;10.25;;;3.00;99.90;;;;;;4983103;28;20281;-91
2021/01/26 08:10:00;;;;;;;14.80;12.02;;;3.00;99.90;;;;;;4982573;28;20234;-92
2021/01/26 08:12:49;;;;;;;14.18;11.98;;;2.90;99.90;;;;;;4982587;28;20221;-92
2021/01/26 08:15:23;;;;;;;19.73;12.00;;;2.90;99.90;;;;;;4965987;28;20220;-92
2021/01/26 08:17:50;;;;;;;18.33;12.15;;;2.90;99.90;;;;;;4988177;28;20222;-92
2021/01/26 08:20:29;;;;;;;22.15;14.30;;;2.90;99.90;;;;;;5009758;28;20200;-94
2021/01/26 08:23:00;;;;;;;26.42;12.55;;;3.00;99.90;;;;;;5015171;28;20257;-92
2021/01/26 08:25:29;;;;;;;17.30;12.80;;;3.00;99.90;;;;;;5000400;28;20627;-93
2021/01/26 08:28:02;;;;;;;24.80;13.57;;;3.00;99.90;;;;;;4997450;28;20197;-93
2021/01/26 08:31:05;;;;;;;16.15;12.38;;;3.00;99.90;;;;;;4990776;28;20290;-94
2021/01/26 08:34:14;;;;;;;19.95;14.32;;;2.90;99.90;;;;;;5012932;28;20223;-93
2021/01/26 08:37:12;;;;;;;16.23;14.00;;;3.00;99.90;;;;;;4994280;28;20214;-91
2021/01/26 09:04:36;;;;;;;34.65;15.23;;;3.20;99.90;;;;;;4953110;29;20207;-93
2021/01/26 09:07:03;;;;;;;21.35;12.75;;;3.20;99.90;;;;;;4945309;29;20215;-90
2021/01/26 09:09:52;;;;;;;21.25;14.25;;;3.10;99.90;;;;;;4965177;29;20320;-91
2021/01/26 09:12:27;;;;;;;24.27;15.30;;;3.10;99.90;;;;;;4976171;28;20267;-91
2021/01/26 09:15:00;;;;;;;22.88;15.35;;;3.10;99.90;;;;;;4973289;28;20186;-92
2021/01/26 09:17:33;;;;;;;18.35;14.43;;;3.10;99.90;;;;;;4973099;28;20189;-92
2021/01/26 09:20:10;;;;;;;29.52;16.38;;;3.00;99.90;;;;;;4970190;28;20205;-91
2021/01/26 09:22:37;;;;;;;22.55;15.70;;;3.00;99.90;;;;;;4983824;28;20206;-92
2021/01/26 09:25:15;;;;;;;18.98;16.20;;;3.10;99.90;;;;;;4985034;28;20281;-94
2021/01/26 09:27:42;;;;;;;26.73;17.08;;;3.10;99.90;;;;;;4984941;28;20199;-94
2021/01/26 09:30:19;;;;;;;20.17;16.40;;;3.20;99.90;;;;;;4985286;28;20264;-94
2021/01/26 09:32:58;;;;;;;24.35;16.00;;;3.20;99.90;;;;;;4964118;28;20213;-89
2021/01/26 09:35:29;;;;;;;21.05;15.00;;;3.20;99.90;;;;;;4979498;28;20216;-90
2021/01/26 09:38:12;;;;;;;19.50;13.93;;;3.20;99.90;;;;;;4978638;28;20197;-90
2021/01/26 09:40:41;;;;;;;18.92;13.40;;;3.30;99.90;;;;;;4979616;28;20197;-90
2021/01/26 09:43:16;;;;;;;15.63;11.63;;;3.30;99.90;;;;;;4979710;28;20312;-90
2021/01/26 09:45:43;;;;;;;17.88;13.40;;;3.30;99.90;;;;;;4978445;28;20304;-88
2021/01/26 09:48:16;;;;;;;17.25;11.73;;;3.40;99.90;;;;;;4976787;28;20194;-89
2021/01/26 09:50:43;;;;;;;12.57;11.27;;;3.30;99.90;;;;;;4977154;28;20194;-90
2021/01/26 09:53:11;;;;;;;20.60;15.73;;;3.40;99.90;;;;;;4979569;28;20222;-90
2021/01/26 09:55:37;;;;;;;14.25;12.13;;;3.30;99.90;;;;;;4981975;28;20197;-87
2021/01/26 09:58:04;;;;;;;20.17;15.65;;;3.40;99.90;;;;;;4978350;28;20200;-89
2021/01/26 10:00:31;;;;;;;19.98;15.68;;;3.40;99.90;;;;;;4978045;28;20190;-89
2021/01/26 10:02:59;;;;;;;27.00;15.50;;;3.50;99.90;;;;;;4977286;28;20190;-90
2021/01/26 10:05:29;;;;;;;17.30;14.90;;;3.40;99.90;;;;;;4979228;28;20205;-89
2021/01/26 10:08:13;;;;;;;19.17;13.45;;;3.50;99.90;;;;;;4978089;28;20196;-88
2021/01/26 10:10:41;;;;;;;25.02;17.23;;;3.50;99.90;;;;;;4977327;28;20206;-89
2021/01/26 10:13:31;;;;;;;21.63;14.90;;;3.50;99.90;;;;;;4979014;28;20275;-90
2021/01/26 10:15:59;;;;;;;21.77;15.43;;;3.50;99.90;;;;;;4976918;28;20194;-90
2021/01/26 10:18:28;;;;;;;24.58;14.43;;;3.50;99.90;;;;;;4977790;28;20190;-87
2021/01/26 10:21:00;;;;;;;22.38;15.48;;;3.50;99.90;;;;;;4976089;28;20208;-88
2021/01/26 10:23:31;;;;;;;21.77;14.77;;;3.50;99.90;;;;;;4976241;28;20194;-89
2021/01/26 10:26:13;;;;;;;17.83;13.20;;;3.60;99.90;;;;;;4976220;28;20244;-89
2021/01/26 10:28:55;;;;;;;18.10;13.13;;;3.70;99.90;;;;;;4978152;28;20325;-88
2021/01/26 10:31:22;;;;;;;22.60;13.70;;;3.60;99.90;;;;;;4979184;28;20546;-89
2021/01/26 10:33:48;;;;;;;24.55;14.18;;;3.50;99.90;;;;;;4979539;28;20295;-89
2021/01/26 10:36:26;;;;;;;22.48;16.15;;;3.50;99.90;;;;;;4979391;28;20186;-89
2021/01/26 10:38:54;;;;;;;23.98;18.23;;;3.50;99.90;;;;;;4985341;28;20194;-91
2021/01/26 10:41:23;;;;;;;21.70;16.73;;;3.50;99.90;;;;;;4988100;28;20703;-90
2021/01/26 10:44:02;;;;;;;25.98;15.13;;;3.50;99.90;;;;;;4981804;28;20205;-90
2021/01/26 10:46:33;;;;;;;24.27;17.85;;;3.50;99.90;;;;;;4984549;28;20309;-90
2021/01/26 10:49:16;;;;;;;27.25;17.55;;;3.60;99.90;;;;;;4980179;28;20201;-87
2021/01/26 10:51:46;;;;;;;25.63;16.42;;;3.50;99.90;;;;;;4980292;28;20202;-88
2021/01/26 10:54:14;;;;;;;33.35;18.70;;;3.50;99.90;;;;;;4980276;28;20201;-87
2021/01/26 10:56:43;;;;;;;32.55;20.13;;;3.50;99.90;;;;;;4985165;28;20250;-90
2021/01/26 10:59:12;;;;;;;29.85;18.27;;;3.50;99.90;;;;;;4983472;28;20238;-89
2021/01/26 11:01:40;;;;;;;35.17;17.80;;;3.60;99.90;;;;;;4987464;28;20204;-88
2021/01/26 11:04:07;;;;;;;30.88;19.83;;;3.60;99.90;;;;;;4980507;28;20195;-86
2021/01/26 11:06:33;;;;;;;27.48;19.52;;;3.60;99.90;;;;;;4980189;28;20217;-87
2021/01/26 11:08:59;;;;;;;28.95;19.75;;;3.60;99.90;;;;;;4985951;28;20198;-88
2021/01/26 11:11:29;;;;;;;17.25;11.02;;;3.70;99.90;;;;;;4973412;28;20194;-88
2021/01/26 11:13:56;;;;;;;9.07;7.75;;;3.60;99.90;;;;;;4981136;28;20216;-88
2021/01/26 11:16:25;;;;;;;12.38;8.63;;;3.10;99.90;;;;;;4978239;28;20193;-89
2021/01/26 11:18:52;;;;;;;8.93;6.68;;;2.70;99.90;;;;;;4981335;28;20204;-89
2021/01/26 11:21:18;;;;;;;11.05;8.48;;;2.50;99.90;;;;;;4981930;28;20196;-93
2021/01/26 11:23:45;;;;;;;11.10;8.40;;;2.50;99.90;;;;;;4981824;28;20197;-90
2021/01/26 11:26:15;;;;;;;8.30;7.45;;;2.50;99.90;;;;;;4982417;28;20189;-89
2021/01/26 11:28:44;;;;;;;20.63;8.02;;;2.60;99.90;;;;;;4980432;28;20185;-88
2021/01/26 11:31:11;;;;;;;7.15;5.90;;;2.60;99.90;;;;;;4987025;28;20261;-90
2021/01/26 11:33:37;;;;;;;11.27;7.43;;;2.60;99.90;;;;;;4979836;28;20308;-88
2021/01/26 11:36:04;;;;;;;8.23;7.05;;;2.60;99.90;;;;;;4977939;28;20193;-89
2021/01/26 11:38:31;;;;;;;5.22;3.85;;;2.70;99.90;;;;;;4978463;28;20206;-89
2021/01/26 11:40:58;;;;;;;6.80;4.10;;;2.70;99.90;;;;;;4978398;28;20674;-86
2021/01/26 11:43:24;;;;;;;5.03;3.75;;;2.70;99.90;;;;;;4984115;28;20634;-90
2021/01/26 11:45:52;;;;;;;5.28;3.75;;;2.60;99.90;;;;;;4980137;28;20231;-88
2021/01/26 11:48:18;;;;;;;4.90;4.15;;;2.60;99.90;;;;;;4981034;28;20204;-88
2021/01/26 11:50:45;;;;;;;6.55;5.15;;;2.60;99.90;;;;;;4978226;28;20217;-89
2021/01/26 11:53:17;;;;;;;9.50;5.53;;;2.60;99.90;;;;;;4967478;28;20242;-90
2021/01/26 11:55:56;;;;;;;6.40;5.47;;;2.60;99.90;;;;;;4993800;28;20219;-92
2021/01/26 11:58:23;;;;;;;5.63;5.03;;;2.70;99.90;;;;;;4986952;28;20173;-92
2021/01/26 12:00:51;;;;;;;6.60;5.80;;;2.80;99.90;;;;;;4987264;28;20265;-91
2021/01/26 12:03:18;;;;;;;7.20;5.45;;;2.90;99.90;;;;;;4979324;28;20219;-92
2021/01/26 12:05:54;;;;;;;6.40;5.75;;;2.90;99.90;;;;;;4979317;28;20189;-93
2021/01/26 12:08:20;;;;;;;8.77;6.40;;;3.00;99.90;;;;;;4978835;28;20280;-90
2021/01/26 12:10:47;;;;;;;7.97;7.20;;;3.10;99.90;;;;;;4987098;28;20209;-89
2021/01/26 12:13:15;;;;;;;8.40;7.55;;;3.10;99.90;;;;;;4977694;28;20240;-87
2021/01/26 12:15:42;;;;;;;9.10;8.10;;;3.10;99.90;;;;;;4977695;28;20190;-87
2021/01/26 12:18:10;;;;;;;8.98;8.07;;;3.10;99.90;;;;;;4980794;28;20194;-90
2021/01/26 12:20:37;;;;;;;10.20;9.20;;;3.10;99.90;;;;;;4997145;28;20197;-90
2021/01/26 12:23:04;;;;;;;9.93;8.95;;;3.10;99.90;;;;;;4986637;28;20197;-90
2021/01/26 12:25:32;;;;;;;10.07;9.15;;;3.20;99.90;;;;;;4978401;28;20205;-90
2021/01/26 12:27:58;;;;;;;19.05;10.70;;;3.20;99.90;;;;;;4978046;28;20643;-91
2021/01/26 12:30:25;;;;;;;15.20;12.00;;;3.30;99.90;;;;;;4978033;28;20203;-87
2021/01/26 12:32:52;;;;;;;12.90;10.80;;;3.40;99.90;;;;;;4976523;28;20215;-89
2021/01/26 12:35:25;;;;;;;17.60;13.65;;;3.50;99.90;;;;;;4965437;28;20243;-91
2021/01/26 12:37:52;;;;;;;17.15;12.43;;;3.80;99.90;;;;;;4964153;28;20195;-90
2021/01/26 12:40:19;;;;;;;18.92;13.23;;;4.00;99.90;;;;;;4982265;28;20190;-90
2021/01/26 12:42:46;;;;;;;14.80;13.30;;;4.20;99.90;;;;;;4972203;28;20191;-88
2021/01/26 12:45:14;;;;;;;12.32;11.13;;;4.40;99.90;;;;;;4979243;28;20201;-89
2021/01/26 12:47:41;;;;;;;12.77;11.30;;;4.50;99.90;;;;;;4976539;28;20330;-88
2021/01/26 12:50:11;;;;;;;11.38;10.27;;;4.60;99.90;;;;;;4977424;28;20203;-89
2021/01/26 12:52:38;;;;;;;12.70;11.35;;;4.80;99.90;;;;;;4977053;28;20218;-90
2021/01/26 12:55:09;;;;;;;10.63;9.55;;;4.90;99.90;;;;;;4978134;28;20199;-92
2021/01/26 12:57:36;;;;;;;11.40;9.15;;;5.00;99.90;;;;;;4982876;28;20622;-89
2021/01/26 13:00:04;;;;;;;10.75;9.48;;;5.30;99.90;;;;;;4991590;28;20238;-88
2021/01/26 13:02:31;;;;;;;13.70;7.03;;;5.60;99.90;;;;;;4980053;28;20201;-93
2021/01/26 13:04:57;;;;;;;8.65;5.35;;;5.40;99.90;;;;;;4977347;28;20190;-89
2021/01/26 13:07:23;;;;;;;9.02;6.55;;;5.40;99.90;;;;;;4981028;28;20202;-88
2021/01/26 13:09:51;;;;;;;7.75;6.22;;;5.40;99.90;;;;;;4981292;28;20238;-91
2021/01/26 13:12:18;;;;;;;10.18;6.70;;;5.40;99.90;;;;;;4977826;28;20273;-93
2021/01/26 13:14:44;;;;;;;8.88;4.68;;;5.40;99.90;;;;;;4986156;28;20187;-91
2021/01/26 13:17:11;;;;;;;12.30;5.40;;;5.30;99.90;;;;;;4985986;28;20189;-92
2021/01/26 13:19:39;;;;;;;6.75;4.15;;;5.50;99.90;;;;;;4997738;28;20221;-91
2021/01/26 13:22:06;;;;;;;7.40;4.10;;;5.80;99.90;;;;;;4995189;28;20192;-93
2021/01/26 13:24:32;;;;;;;6.80;4.35;;;6.00;99.90;;;;;;4977805;28;20191;-89
2021/01/26 13:39:50;;;;;;;8.90;4.05;;;5.70;99.90;;;;;;4975556;28;20854;-88
2021/01/26 13:42:16;;;;;;;4.28;2.72;;;5.80;99.90;;;;;;4971531;28;20203;-90
2021/01/26 13:44:47;;;;;;;4.20;3.10;;;5.80;99.90;;;;;;4973766;28;20197;-91
2021/01/26 13:47:14;;;;;;;6.40;3.67;;;5.80;99.90;;;;;;4975722;28;20226;-90
2021/01/26 13:49:40;;;;;;;9.57;3.70;;;5.70;99.90;;;;;;4971345;28;20186;-91
2021/01/26 13:52:06;;;;;;;6.28;3.63;;;5.50;99.90;;;;;;4976883;28;20647;-92
2021/01/26 13:54:33;;;;;;;5.72;4.03;;;5.50;99.90;;;;;;4977489;28;20570;-89
2021/01/26 13:57:00;;;;;;;5.30;3.85;;;5.70;99.90;;;;;;4977151;28;20221;-90
2021/01/26 13:59:26;;;;;;;9.07;5.07;;;5.70;99.90;;;;;;4977361;28;20187;-88
2021/01/26 14:01:53;;;;;;;6.80;5.18;;;5.80;99.90;;;;;;4976740;28;20202;-91
2021/01/26 14:04:19;;;;;;;7.95;5.75;;;5.70;99.90;;;;;;4981999;28;20187;-90
2021/01/26 14:06:47;;;;;;;7.25;4.55;;;5.70;99.90;;;;;;4984752;28;20191;-91
2021/01/26 14:09:15;;;;;;;9.55;5.57;;;5.90;99.90;;;;;;4988532;28;20209;-90
2021/01/26 14:11:42;;;;;;;8.30;5.28;;;5.80;99.90;;;;;;4987145;28;20210;-88
2021/01/26 14:14:10;;;;;;;10.40;3.78;;;5.90;99.90;;;;;;4989944;28;20226;-89
2021/01/26 14:16:36;;;;;;;13.25;4.40;;;5.80;99.90;;;;;;4986551;28;20191;-90
2021/01/26 14:19:04;;;;;;;5.35;3.20;;;5.70;99.90;;;;;;4986295;28;20245;-89
2021/01/26 14:21:30;;;;;;;4.72;3.78;;;5.60;99.90;;;;;;4982952;28;20546;-89
2021/01/26 14:23:57;;;;;;;7.00;4.00;;;5.60;99.90;;;;;;4986756;28;20258;-88
2021/01/26 14:26:23;;;;;;;5.53;3.85;;;5.70;99.90;;;;;;4981027;28;20200;-87
2021/01/26 14:28:49;;;;;;;7.47;3.90;;;6.10;99.90;;;;;;4980445;28;20194;-88
2021/01/26 14:31:16;;;;;;;4.85;3.15;;;6.20;99.90;;;;;;4981798;28;20202;-90
2021/01/26 14:33:43;;;;;;;6.80;3.95;;;6.20;99.90;;;;;;4980688;28;20229;-89
2021/01/26 14:36:09;;;;;;;7.88;3.38;;;6.00;99.90;;;;;;4980476;28;20194;-87
2021/01/26 14:38:36;;;;;;;5.88;4.05;;;5.90;99.90;;;;;;4980979;28;20226;-88
2021/01/26 14:41:03;;;;;;;5.30;3.25;;;5.90;99.90;;;;;;4981050;28;20422;-88
2021/01/26 14:43:30;;;;;;;7.53;3.67;;;5.70;99.90;;;;;;4979950;28;20190;-89
2021/01/26 14:45:57;;;;;;;5.88;4.45;;;5.60;99.90;;;;;;4980258;28;20199;-89
2021/01/26 14:48:25;;;;;;;7.75;5.22;;;5.50;99.90;;;;;;4978503;28;20202;-88
2021/01/26 14:50:52;;;;;;;6.05;4.00;;;5.40;99.90;;;;;;4979533;28;20191;-88
2021/01/26 14:53:18;;;;;;;9.63;4.40;;;5.30;99.90;;;;;;4978660;28;20246;-87
2021/01/26 14:55:44;;;;;;;4.35;3.50;;;5.30;99.90;;;;;;4977356;28;20195;-87